East Horsley, United Kingdom
Current Conditions -  °F | °C
As of 8:20 PM on Sunday 25 Jan 2015 (Local Time) from EGKK Reporting Station
Broken Clouds Broken Clouds  
Wind Chill: 41°   Ceiling: 1700
Heat Index: 45°   Visibility: 6mi
Dew Point: 39°   Wind: 7mph
Humidity: 81%   Direction: 230°SW
Pressure: 30.33"   Gusts: NA
Location:  51.27°N, 0.43°W
Report Text: EGKK 252020Z 23006KT 9999 BKN017 07/04 Q1027
Loading
Personal Weather Stations






























Interactive Weather Map New forecast layout! Learn more

10-Day Weather Forecast

Advertisements
Track Severe Weather on mobile